Time;durP1;ratioP1;P1;durP2;ratioP2;P2;SDS_P1;SDS_P2;PMS_P1;PMS_P2;Temp;Humidity;BMP_temperature;BMP_pressure;BME280_temperature;BME280_humidity;BME280_pressure;Samples;Min_cycle;Max_cycle;Signal;HPM_P1;HPM_P2
2023/05/18 00:00:09;;;;;;;6.93;1.95;;;;;;;8.55;99.14;102944.03;4845934;29;20080;-82
2023/05/18 00:02:37;;;;;;;3.80;2.05;;;;;;;8.53;99.45;102940.44;4820934;29;20117;-82
2023/05/18 00:05:05;;;;;;;4.00;2.05;;;;;;;8.53;99.61;102945.69;4832354;29;20447;-81
2023/05/18 00:07:33;;;;;;;7.43;2.10;;;;;;;8.50;100.00;102935.03;4813196;29;20057;-82
2023/05/18 00:10:00;;;;;;;3.38;1.88;;;;;;;8.52;100.00;102938.63;4825842;29;20057;-82
2023/05/18 00:12:28;;;;;;;4.35;1.63;;;;;;;8.51;100.00;102936.84;4797852;29;20049;-81
2023/05/18 00:14:55;;;;;;;3.05;1.60;;;;;;;8.51;100.00;102936.84;4806123;29;20076;-81
2023/05/18 00:17:23;;;;;;;7.57;2.40;;;;;;;8.50;100.00;102941.19;4841485;29;20065;-82
2023/05/18 00:19:50;;;;;;;6.72;2.08;;;;;;;8.52;100.00;102947.41;4809141;29;20064;-82
2023/05/18 00:22:18;;;;;;;3.53;1.65;;;;;;;8.53;100.00;102943.97;4826423;29;20495;-84
2023/05/18 00:24:46;;;;;;;6.47;2.00;;;;;;;8.54;100.00;102943.16;4805879;29;20084;-82
2023/05/18 00:27:14;;;;;;;6.15;2.22;;;;;;;8.55;100.00;102946.66;4822722;29;20054;-82
2023/05/18 00:29:41;;;;;;;8.52;2.17;;;;;;;8.56;100.00;102943.19;4813599;29;20062;-82
2023/05/18 00:32:11;;;;;;;8.98;1.90;;;;;;;8.57;100.00;102955.50;4836820;29;20052;-82
2023/05/18 00:34:39;;;;;;;12.88;2.60;;;;;;;8.56;100.00;102949.38;4839091;29;21082;-83
2023/05/18 00:37:06;;;;;;;8.50;2.47;;;;;;;8.56;100.00;102948.44;4843653;29;20410;-82
2023/05/18 00:39:37;;;;;;;4.57;2.38;;;;;;;8.56;100.00;102953.69;4795505;29;20083;-82
2023/05/18 00:42:04;;;;;;;6.53;2.35;;;;;;;8.54;100.00;102955.34;4843704;29;20052;-82
2023/05/18 00:44:33;;;;;;;7.20;2.00;;;;;;;8.53;100.00;102951.84;4820822;29;20515;-81
2023/05/18 00:47:00;;;;;;;7.53;3.00;;;;;;;8.53;100.00;102946.59;4824813;29;20058;-82
2023/05/18 00:49:28;;;;;;;4.82;2.00;;;;;;;8.54;100.00;102956.28;4826833;29;20057;-83
2023/05/18 00:51:56;;;;;;;9.52;2.10;;;;;;;8.54;100.00;102947.47;4836777;29;20054;-83
2023/05/18 00:54:25;;;;;;;7.97;2.00;;;;;;;8.54;100.00;102936.97;4785245;29;20074;-83
2023/05/18 00:56:52;;;;;;;9.27;2.28;;;;;;;8.53;100.00;102936.06;4835521;29;20559;-84
2023/05/18 00:59:20;;;;;;;7.13;1.70;;;;;;;8.54;100.00;102943.16;4830593;29;20064;-84
2023/05/18 01:01:49;;;;;;;6.80;1.90;;;;;;;8.53;100.00;102943.97;4883504;29;20041;-85
2023/05/18 01:04:16;;;;;;;8.35;2.28;;;;;;;8.54;100.00;102947.47;4820628;29;20494;-84
2023/05/18 01:06:45;;;;;;;4.55;1.83;;;;;;;8.53;100.00;102943.06;4871819;29;20053;-84
2023/05/18 01:09:13;;;;;;;6.80;2.17;;;;;;;8.53;100.00;102948.31;4877036;29;20060;-84
2023/05/18 01:12:17;;;;;;;6.40;2.03;;;;;;;8.53;100.00;102945.69;4843200;29;20043;-84
2023/05/18 01:15:07;;;;;;;7.22;2.70;;;;;;;8.54;100.00;102947.47;4846716;29;20068;-83
2023/05/18 01:18:03;;;;;;;6.65;2.30;;;;;;;8.55;100.00;102950.19;4850493;29;20073;-84
2023/05/18 01:20:38;;;;;;;7.03;2.38;;;;;;;8.55;100.00;102946.66;4866106;29;20045;-83
2023/05/18 01:23:13;;;;;;;6.72;1.98;;;;;;;8.56;100.00;102949.38;4856663;29;20406;-82
2023/05/18 01:25:53;;;;;;;6.43;2.30;;;;;;;8.57;100.00;102945.00;4860710;29;20068;-82
2023/05/18 01:28:29;;;;;;;9.57;1.83;;;;;;;8.56;100.00;102941.47;4889035;29;20060;-85
2023/05/18 01:30:57;;;;;;;7.15;2.42;;;;;;;8.56;100.00;102941.47;4869214;29;20048;-83
2023/05/18 01:33:25;;;;;;;9.98;2.17;;;;;;;8.56;100.00;102946.72;4856937;29;20052;-83
2023/05/18 01:35:56;;;;;;;4.55;1.63;;;;;;;8.55;100.00;102944.91;4868006;29;20541;-83
2023/05/18 01:38:26;;;;;;;2.85;1.70;;;;;;;8.54;100.00;102945.78;4853467;29;20060;-85
2023/05/18 01:41:20;;;;;;;7.45;2.53;;;;;;;8.55;100.00;102946.66;4858325;29;20072;-84
2023/05/18 01:44:03;;;;;;;7.07;2.55;;;;;;;8.56;100.00;102949.38;4869720;29;20053;-84
2023/05/18 01:46:38;;;;;;;6.63;1.85;;;;;;;8.57;100.00;102953.78;4860408;29;20526;-84
2023/05/18 01:49:16;;;;;;;4.60;1.60;;;;;;;8.56;100.00;102943.19;4885723;29;20049;-83
2023/05/18 01:51:45;;;;;;;8.35;1.63;;;;;;;8.56;100.00;102952.00;4875259;29;20052;-83
2023/05/18 01:54:16;;;;;;;9.73;2.50;;;;;;;8.56;100.00;102945.81;4873026;29;20061;-83
2023/05/18 01:56:44;;;;;;;;;;;;;;;8.55;100.00;102957.16;4848065;29;20057;-83
2023/05/18 01:59:13;;;;;;;10.80;1.98;;;;;;;8.56;100.00;102956.31;4879918;29;19928;-83
2023/05/18 02:01:41;;;;;;;6.63;1.73;;;;;;;8.55;100.00;102952.81;4880853;29;20041;-83
2023/05/18 02:04:09;;;;;;;7.18;1.90;;;;;;;8.57;100.00;102952.88;4874822;29;20052;-83
2023/05/18 02:06:37;;;;;;;6.55;1.88;;;;;;;8.57;100.00;102945.00;4884451;29;20063;-83
2023/05/18 02:09:05;;;;;;;7.15;1.70;;;;;;;8.57;100.00;102953.78;4871305;29;20056;-83
2023/05/18 02:11:33;;;;;;;3.42;1.40;;;;;;;8.54;100.00;102951.03;4846240;29;20052;-84
2023/05/18 02:14:01;;;;;;;5.63;1.77;;;;;;;8.55;100.00;102949.28;4866756;29;20055;-84
2023/05/18 02:16:28;;;;;;;7.80;2.05;;;;;;;8.54;100.00;102948.41;4858772;29;20060;-84
2023/05/18 02:18:59;;;;;;;7.57;2.13;;;;;;;8.55;100.00;102947.56;4878122;29;20486;-84
2023/05/18 02:21:26;;;;;;;7.57;1.90;;;;;;;8.56;100.00;102958.94;4848574;29;20061;-84
2023/05/18 02:23:53;;;;;;;4.90;1.90;;;;;;;8.56;100.00;102961.56;4876672;29;20049;-82
2023/05/18 02:26:22;;;;;;;2.90;1.52;;;;;;;8.55;100.00;102959.81;4864957;29;20664;-83
2023/05/18 02:28:51;;;;;;;5.93;1.65;;;;;;;8.55;100.00;102958.06;4881683;29;20041;-84
2023/05/18 02:31:20;;;;;;;5.80;1.98;;;;;;;8.54;100.00;102955.34;4869661;29;20060;-83
2023/05/18 02:33:48;;;;;;;4.00;1.70;;;;;;;8.51;100.00;102956.13;4875150;29;20041;-81
2023/05/18 02:36:17;;;;;;;8.48;2.20;;;;;;;8.51;100.00;102958.75;4874918;29;20053;-82
2023/05/18 02:38:45;;;;;;;4.75;1.80;;;;;;;8.52;100.00;102957.91;4871308;29;20737;-82
2023/05/18 02:41:12;;;;;;;6.05;1.70;;;;;;;8.50;100.00;102950.81;4867918;29;20056;-83
2023/05/18 02:43:40;;;;;;;8.80;2.17;;;;;;;8.50;100.00;102956.94;4827845;29;20063;-82
2023/05/18 02:46:07;;;;;;;4.55;1.95;;;;;;;8.50;100.00;102951.69;4903135;29;20055;-82
2023/05/18 02:48:35;;;;;;;7.10;1.60;;;;;;;8.52;100.00;102957.91;4856801;29;20088;-83
2023/05/18 02:51:02;;;;;;;5.00;2.25;;;;;;;8.51;100.00;102961.38;4894708;29;20416;-83
2023/05/18 02:53:30;;;;;;;5.03;1.77;;;;;;;8.48;100.00;102958.59;4862557;29;20056;-85
2023/05/18 02:56:03;;;;;;;8.60;2.58;;;;;;;8.49;100.00;102962.16;4870521;29;20056;-84
2023/05/18 02:58:43;;;;;;;3.95;1.65;;;;;;;8.48;100.00;102965.59;4849038;29;20061;-84
2023/05/18 03:01:25;;;;;;;8.45;2.38;;;;;;;8.45;100.00;102955.84;4863951;29;20049;-85
2023/05/18 03:03:56;;;;;;;10.20;1.80;;;;;;;8.45;100.00;102965.44;4862048;29;20067;-84
2023/05/18 03:06:25;;;;;;;4.90;1.70;;;;;;;8.43;100.00;102959.22;4888520;29;20053;-84
2023/05/18 03:08:55;;;;;;;10.45;1.50;;;;;;;8.41;100.00;102964.38;4878803;29;20048;-84
2023/05/18 03:11:31;;;;;;;5.25;1.77;;;;;;;8.37;100.00;102959.81;4873683;29;20063;-84
2023/05/18 03:13:58;;;;;;;5.50;1.70;;;;;;;8.37;100.00;102972.94;4841791;29;20048;-84
2023/05/18 03:16:27;;;;;;;8.98;1.80;;;;;;;8.35;100.00;102962.34;4860911;29;20612;-84
2023/05/18 03:18:57;;;;;;;3.55;1.70;;;;;;;8.37;100.00;102963.34;4855647;29;21019;-84
2023/05/18 03:21:34;;;;;;;4.72;1.60;;;;;;;8.40;100.00;102959.97;4865519;29;20044;-84
2023/05/18 03:24:06;;;;;;;4.07;1.48;;;;;;;8.39;100.00;102959.06;4883129;29;20410;-84
2023/05/18 03:26:37;;;;;;;4.63;1.83;;;;;;;8.39;100.00;102959.06;4840625;29;20083;-84
2023/05/18 03:29:04;;;;;;;6.43;2.00;;;;;;;8.34;100.00;102965.84;4852154;29;20059;-84
2023/05/18 03:31:32;;;;;;;7.85;2.15;;;;;;;8.35;100.00;102971.97;4877875;29;20067;-84
2023/05/18 03:34:01;;;;;;;3.47;1.25;;;;;;;8.35;100.00;102966.72;4865903;29;20059;-83
2023/05/18 03:36:32;;;;;;;5.70;1.60;;;;;;;8.36;100.00;102971.16;4852885;29;20060;-83
2023/05/18 03:38:59;;;;;;;5.07;1.70;;;;;;;8.35;100.00;102975.50;4865383;29;20052;-83
2023/05/18 03:41:28;;;;;;;3.53;1.50;;;;;;;8.37;100.00;102970.31;4869679;29;20052;-83
2023/05/18 03:43:56;;;;;;;2.85;1.83;;;;;;;8.36;100.00;102968.53;4864107;29;20056;-83
2023/05/18 03:46:24;;;;;;;4.70;1.75;;;;;;;8.38;100.00;102966.88;4864416;29;20079;-82
2023/05/18 03:48:53;;;;;;;4.50;1.77;;;;;;;8.38;100.00;102961.63;4864381;29;20088;-83
2023/05/18 03:51:28;;;;;;;7.40;2.03;;;;;;;8.39;100.00;102968.66;4859051;29;20048;-83
2023/05/18 03:53:56;;;;;;;6.40;1.60;;;;;;;8.37;100.00;102968.63;4873297;29;20045;-83
2023/05/18 03:56:23;;;;;;;4.25;1.77;;;;;;;8.34;100.00;102978.06;4847441;29;20414;-83
2023/05/18 03:58:51;;;;;;;8.02;1.85;;;;;;;8.35;100.00;102977.22;4869038;29;20056;-82
2023/05/18 04:01:18;;;;;;;8.80;2.13;;;;;;;8.35;100.00;102970.25;4844844;29;20077;-83
2023/05/18 04:03:46;;;;;;;6.97;1.65;;;;;;;8.36;100.00;102969.44;4850050;29;20053;-83
2023/05/18 04:06:14;;;;;;;4.95;1.70;;;;;;;8.39;100.00;102974.84;4867171;29;20529;-83
2023/05/18 04:08:42;;;;;;;4.13;1.60;;;;;;;8.42;100.00;102973.22;4876171;29;20139;-83
2023/05/18 04:11:10;;;;;;;6.47;2.35;;;;;;;8.42;100.00;102963.59;4855626;29;20056;-83
2023/05/18 04:13:40;;;;;;;6.75;1.98;;;;;;;8.44;100.00;102969.81;4857025;29;20049;-83
2023/05/18 04:16:12;;;;;;;8.15;1.75;;;;;;;8.45;100.00;102969.00;4850929;29;20520;-83
2023/05/18 04:18:40;;;;;;;7.68;1.85;;;;;;;8.48;100.00;102981.38;4876818;29;20056;-83
2023/05/18 04:21:08;;;;;;;5.80;1.50;;;;;;;8.49;100.00;102970.03;4858960;29;20049;-82
2023/05/18 04:23:37;;;;;;;10.68;2.65;;;;;;;8.50;100.00;102983.22;4866449;29;20052;-83
2023/05/18 04:26:05;;;;;;;8.25;1.60;;;;;;;8.49;100.00;102985.81;4890072;29;20068;-83
2023/05/18 04:28:33;;;;;;;5.15;2.15;;;;;;;8.49;100.00;102993.69;4877312;29;20063;-83
2023/05/18 04:31:04;;;;;;;4.95;1.65;;;;;;;8.49;100.00;102980.56;4838655;29;20057;-83
2023/05/18 04:33:32;;;;;;;7.60;2.42;;;;;;;8.51;100.00;102990.28;4866755;29;20083;-83
2023/05/18 04:36:03;;;;;;;10.63;2.25;;;;;;;8.52;100.00;102986.81;4897114;29;20052;-83
2023/05/18 04:38:33;;;;;;;6.53;1.88;;;;;;;8.55;100.00;102994.84;4872813;29;20049;-83
2023/05/18 04:41:05;;;;;;;8.90;3.50;;;;;;;8.61;100.00;102996.88;4860863;29;20498;-83
2023/05/18 04:43:33;;;;;;;7.55;2.70;;;;;;;8.67;100.00;102985.72;4855632;29;20045;-83
2023/05/18 04:46:00;;;;;;;6.68;2.15;;;;;;;8.72;100.00;102987.72;4854121;29;20053;-83
2023/05/18 04:48:29;;;;;;;8.30;1.80;;;;;;;8.77;100.00;102994.09;4867560;29;20450;-83
2023/05/18 04:50:57;;;;;;;6.03;2.05;;;;;;;8.83;100.00;102997.81;4868701;29;20064;-82
2023/05/18 04:53:26;;;;;;;10.57;2.10;;;;;;;8.89;100.00;102992.84;4868446;29;20052;-82
2023/05/18 04:55:53;;;;;;;5.65;2.28;;;;;;;8.94;100.00;102997.50;4891740;29;20090;-83
2023/05/18 04:58:21;;;;;;;7.03;2.00;;;;;;;9.01;100.00;103005.63;4870975;29;20083;-83
2023/05/18 05:00:49;;;;;;;5.90;1.80;;;;;;;9.05;100.00;103010.19;4835434;29;20052;-83
2023/05/18 05:03:16;;;;;;;6.32;1.98;;;;;;;9.10;100.00;103003.41;4841738;29;20057;-84
2023/05/18 05:05:44;;;;;;;12.02;2.00;;;;;;;9.14;100.00;103013.22;4862565;29;20049;-83
2023/05/18 05:08:12;;;;;;;7.88;2.30;;;;;;;9.19;100.00;103001.19;4868110;29;20064;-84
2023/05/18 05:10:39;;;;;;;4.57;1.83;;;;;;;9.22;100.00;103010.94;4850369;29;20053;-83
2023/05/18 05:13:08;;;;;;;4.35;1.63;;;;;;;9.25;100.00;103008.44;4879953;29;20068;-83
2023/05/18 05:15:36;;;;;;;8.38;2.03;;;;;;;9.29;100.00;103008.63;4878147;29;20168;-84
2023/05/18 05:18:03;;;;;;;5.35;2.10;;;;;;;9.34;100.00;103015.00;4846428;29;20072;-84
2023/05/18 05:20:31;;;;;;;4.10;1.60;;;;;;;9.35;100.00;103011.53;4886899;29;20100;-82
2023/05/18 05:22:58;;;;;;;10.65;2.15;;;;;;;9.33;100.00;103015.81;4869530;29;20419;-83
2023/05/18 05:25:26;;;;;;;6.45;2.05;;;;;;;9.34;100.00;103015.00;4856461;29;20067;-83
2023/05/18 05:27:54;;;;;;;4.78;1.88;;;;;;;9.36;100.00;103031.75;4854804;29;20061;-83
2023/05/18 05:30:21;;;;;;;9.88;2.30;;;;;;;9.35;100.00;103027.31;4859406;29;20054;-83
2023/05/18 05:32:49;;;;;;;3.90;1.85;;;;;;;9.35;100.00;103036.94;4824193;29;20060;-83
2023/05/18 05:35:17;;;;;;;4.38;1.77;;;;;;;9.34;99.57;103030.78;4845427;29;20521;-84
2023/05/18 05:37:45;;;;;;;10.45;3.47;;;;;;;9.31;98.62;103030.66;4863880;29;20064;-84
2023/05/18 05:40:13;;;;;;;5.45;2.60;;;;;;;9.34;99.92;103028.16;4851482;29;20052;-83
2023/05/18 05:42:44;;;;;;;4.88;1.85;;;;;;;9.38;99.76;103020.41;4878724;29;20504;-83
2023/05/18 05:45:12;;;;;;;2.95;1.38;;;;;;;9.35;97.88;103027.31;4885300;29;20499;-83
2023/05/18 05:47:48;;;;;;;5.80;1.67;;;;;;;9.32;97.16;103031.56;4856502;29;20053;-83
2023/05/18 05:50:17;;;;;;;6.40;2.20;;;;;;;9.31;97.59;103030.66;4845894;29;20045;-83
2023/05/18 05:52:46;;;;;;;4.32;1.55;;;;;;;9.36;98.07;103031.75;4865689;29;20061;-83
2023/05/18 05:55:14;;;;;;;5.97;2.03;;;;;;;9.41;97.88;103041.56;4874739;29;20501;-83
2023/05/18 05:57:42;;;;;;;6.22;2.00;;;;;;;9.43;96.48;103043.41;4854081;29;20061;-83
2023/05/18 06:00:11;;;;;;;5.70;2.20;;;;;;;9.46;95.91;103040.94;4863085;29;20061;-83
2023/05/18 06:02:50;;;;;;;7.72;2.03;;;;;;;9.49;96.18;103045.41;4857181;29;20061;-83
2023/05/18 06:05:29;;;;;;;6.57;1.58;;;;;;;9.52;95.89;103042.94;4868216;29;20050;-83
2023/05/18 06:07:57;;;;;;;6.90;1.52;;;;;;;9.62;96.24;103036.31;4894001;29;20052;-83
2023/05/18 06:10:25;;;;;;;5.18;1.90;;;;;;;9.73;96.33;103040.31;4871952;29;20060;-83
2023/05/18 06:12:52;;;;;;;3.78;1.40;;;;;;;9.86;97.62;103045.25;4855878;29;20056;-83
2023/05/18 06:15:24;;;;;;;8.32;2.03;;;;;;;9.98;96.23;103039.59;4862856;29;20054;-83
2023/05/18 06:17:51;;;;;;;7.18;1.95;;;;;;;10.12;95.70;103040.16;4854671;29;20057;-83
2023/05/18 06:20:19;;;;;;;7.13;1.80;;;;;;;10.25;95.31;103039.78;4849521;29;20050;-83
2023/05/18 06:22:46;;;;;;;4.47;1.80;;;;;;;10.38;93.42;103042.94;4846732;29;20057;-83
2023/05/18 06:25:21;;;;;;;2.88;1.60;;;;;;;10.49;93.14;103047.81;4865940;29;20048;-83
2023/05/18 06:28:14;;;;;;;7.13;1.80;;;;;;;10.58;91.43;103041.97;4834708;29;20071;-83
2023/05/18 06:30:48;;;;;;;6.43;1.40;;;;;;;10.61;90.71;103051.75;4867081;29;20141;-83
2023/05/18 06:33:22;;;;;;;3.92;1.58;;;;;;;10.61;89.57;103051.75;4854441;29;20067;-84
2023/05/18 06:35:50;;;;;;;5.50;1.70;;;;;;;10.67;89.30;103047.59;4860520;29;20048;-83
2023/05/18 06:38:17;;;;;;;4.90;1.83;;;;;;;10.69;88.72;103047.66;4857765;29;20053;-82
2023/05/18 06:40:46;;;;;;;6.07;1.73;;;;;;;10.69;87.92;103050.28;4843483;29;20053;-83
2023/05/18 06:43:14;;;;;;;6.55;1.80;;;;;;;10.67;88.13;103052.88;4868353;29;20052;-83
2023/05/18 06:45:46;;;;;;;6.00;1.77;;;;;;;10.75;89.62;103047.00;4867018;29;20064;-84
2023/05/18 06:48:26;;;;;;;5.55;2.03;;;;;;;10.90;89.47;103047.56;4844843;29;20513;-85
2023/05/18 06:50:54;;;;;;;5.10;2.05;;;;;;;10.94;87.63;103054.72;4891394;29;20060;-84
2023/05/18 06:53:22;;;;;;;4.93;1.80;;;;;;;10.98;86.68;103047.84;4881160;29;20428;-83
2023/05/18 06:55:49;;;;;;;7.93;2.00;;;;;;;11.09;87.39;103049.13;4861513;29;20415;-83
2023/05/18 06:58:17;;;;;;;5.45;1.40;;;;;;;11.21;86.41;103048.66;4863319;29;20056;-83
2023/05/18 07:00:47;;;;;;;6.97;1.77;;;;;;;11.34;86.50;103042.09;4868617;29;20053;-83
2023/05/18 07:03:16;;;;;;;7.32;1.63;;;;;;;11.43;84.64;103045.94;4888238;29;20057;-85
2023/05/18 07:05:43;;;;;;;7.60;1.52;;;;;;;11.54;85.76;103050.72;4868121;29;20057;-84
2023/05/18 07:08:11;;;;;;;3.88;1.52;;;;;;;11.63;85.09;103044.00;4889559;29;20053;-85
2023/05/18 07:10:38;;;;;;;4.63;1.83;;;;;;;11.76;85.42;103044.38;4906558;29;20068;-84
2023/05/18 07:13:06;;;;;;;7.28;1.77;;;;;;;11.95;86.31;103054.78;4881389;29;20072;-82
2023/05/18 07:15:33;;;;;;;5.03;1.85;;;;;;;12.16;85.21;103043.09;4880537;29;20040;-85
2023/05/18 07:18:02;;;;;;;4.72;1.60;;;;;;;12.31;83.10;103043.56;4854080;29;20061;-82
2023/05/18 07:20:30;;;;;;;3.22;1.50;;;;;;;12.47;82.64;103048.47;4833893;29;20057;-81
2023/05/18 07:22:57;;;;;;;3.28;1.15;;;;;;;12.49;79.46;103053.81;4856723;29;20060;-81
2023/05/18 07:25:25;;;;;;;8.48;2.20;;;;;;;12.29;77.89;103054.09;4847822;29;20499;-80
2023/05/18 07:27:53;;;;;;;3.90;1.40;;;;;;;12.24;78.54;103057.44;4857767;29;20908;-81
2023/05/18 07:30:21;;;;;;;5.88;2.38;;;;;;;12.38;81.22;103060.50;4867633;29;20061;-81
2023/05/18 07:32:50;;;;;;;4.93;1.52;;;;;;;12.51;79.75;103057.41;4865710;29;20055;-81
2023/05/18 07:35:21;;;;;;;3.88;1.42;;;;;;;12.69;78.68;103051.78;4828108;29;20041;-81
2023/05/18 07:37:50;;;;;;;5.78;1.70;;;;;;;12.84;79.11;103049.56;4864613;29;20049;-80
2023/05/18 07:40:18;;;;;;;6.25;1.52;;;;;;;12.79;77.02;103056.47;4878988;29;20063;-83
2023/05/18 07:42:46;;;;;;;5.95;1.80;;;;;;;12.78;76.62;103054.69;4855307;29;20052;-81
2023/05/18 07:45:13;;;;;;;4.55;1.75;;;;;;;12.96;77.76;103056.06;4877391;29;20048;-82
2023/05/18 07:47:40;;;;;;;5.05;1.30;;;;;;;13.16;77.45;103059.28;4851937;29;20060;-82
2023/05/18 07:50:08;;;;;;;5.60;1.95;;;;;;;13.32;76.99;103056.22;4851653;29;20058;-82
2023/05/18 07:52:36;;;;;;;5.90;1.50;;;;;;;13.51;76.26;103054.06;4867214;29;20048;-81
2023/05/18 07:55:04;;;;;;;7.88;2.40;;;;;;;13.59;74.46;103057.81;4835812;29;20351;-82
2023/05/18 07:57:34;;;;;;;4.10;1.45;;;;;;;13.55;72.94;103058.59;4847981;29;20053;-82
2023/05/18 08:00:05;;;;;;;5.03;1.47;;;;;;;13.37;73.23;103062.56;4876987;29;20049;-82
2023/05/18 08:02:38;;;;;;;5.13;1.45;;;;;;;13.16;72.46;103067.25;4868249;29;20068;-82
2023/05/18 08:05:08;;;;;;;4.75;1.50;;;;;;;12.89;73.90;103065.56;4844729;29;20076;-82
2023/05/18 08:07:36;;;;;;;5.03;1.73;;;;;;;12.73;73.56;103069.53;4834551;29;20050;-82
2023/05/18 08:10:04;;;;;;;4.03;1.50;;;;;;;12.63;74.27;103068.34;4892304;29;20064;-83
2023/05/18 08:12:32;;;;;;;8.30;1.75;;;;;;;12.42;74.98;103067.69;4880776;29;20048;-82
2023/05/18 08:14:59;;;;;;;6.85;1.80;;;;;;;12.24;73.43;103068.91;4867058;29;20052;-82
2023/05/18 08:17:27;;;;;;;7.47;2.00;;;;;;;11.98;74.25;103060.13;4846767;29;20056;-82
2023/05/18 08:19:55;;;;;;;4.22;1.58;;;;;;;11.96;76.88;103067.13;4885723;29;20056;-82
2023/05/18 08:22:23;;;;;;;3.17;1.55;;;;;;;12.04;78.17;103065.66;4845185;29;20053;-85
2023/05/18 08:24:50;;;;;;;2.95;1.73;;;;;;;12.06;76.73;103061.31;4857949;29;20056;-81
2023/05/18 08:27:18;;;;;;;6.18;1.50;;;;;;;12.00;76.16;103063.75;4869275;29;20057;-82
2023/05/18 08:29:46;;;;;;;3.90;1.80;;;;;;;12.03;77.58;103058.56;4866747;29;20049;-81
2023/05/18 08:32:13;;;;;;;3.40;1.65;;;;;;;12.04;77.50;103057.72;4846178;29;20056;-80
2023/05/18 08:34:42;;;;;;;5.95;1.60;;;;;;;12.06;77.33;103053.38;4882135;29;20064;-81
2023/05/18 08:37:10;;;;;;;3.47;1.50;;;;;;;12.08;76.18;103056.06;4832970;29;20060;-82
2023/05/18 08:39:37;;;;;;;5.90;1.67;;;;;;;12.04;76.79;103054.16;4850724;29;20053;-82
2023/05/18 08:42:11;;;;;;;4.38;1.63;;;;;;;12.03;76.57;103055.03;4879253;29;20057;-82
2023/05/18 08:44:51;;;;;;;4.10;1.80;;;;;;;12.04;76.89;103054.16;4877756;29;20049;-81
2023/05/18 08:47:24;;;;;;;4.68;1.60;;;;;;;12.11;76.69;103055.25;4857451;29;20076;-81
2023/05/18 08:49:55;;;;;;;7.18;1.63;;;;;;;12.06;75.82;103052.47;4859156;29;20530;-82
2023/05/18 08:52:26;;;;;;;8.73;2.03;;;;;;;11.96;75.55;103061.84;4863149;29;20422;-81
2023/05/18 08:54:58;;;;;;;5.82;1.58;;;;;;;11.87;76.26;103056.22;4883153;29;20064;-81
2023/05/18 08:57:31;;;;;;;6.55;1.80;;;;;;;11.74;77.75;103060.22;4853661;29;20065;-81
2023/05/18 09:00:00;;;;;;;5.30;2.08;;;;;;;11.61;78.85;103056.25;4891746;29;20422;-81
2023/05/18 09:02:28;;;;;;;7.90;1.52;;;;;;;11.62;78.37;103059.78;4860491;29;20061;-80
2023/05/18 09:04:57;;;;;;;6.10;1.95;;;;;;;11.59;78.91;103057.06;4860553;29;20057;-81
2023/05/18 09:07:26;;;;;;;8.40;2.30;;;;;;;11.52;78.51;103061.22;4867176;29;20053;-83
2023/05/18 09:09:55;;;;;;;7.78;1.98;;;;;;;11.54;79.84;103061.28;4882014;29;20430;-82
2023/05/18 09:12:23;;;;;;;4.53;1.90;;;;;;;11.62;80.87;103063.31;4889391;29;20421;-82
2023/05/18 09:14:52;;;;;;;4.97;1.73;;;;;;;11.65;80.04;103062.53;4888706;29;20056;-82
2023/05/18 09:17:21;;;;;;;7.50;1.92;;;;;;;11.67;80.72;103066.13;4857937;29;20059;-82
2023/05/18 09:19:49;;;;;;;6.75;1.83;;;;;;;11.76;82.05;103054.94;4870954;29;20056;-83
2023/05/18 09:22:16;;;;;;;4.50;2.00;;;;;;;11.89;84.73;103060.75;4886715;29;20052;-85
2023/05/18 09:24:44;;;;;;;4.28;1.77;;;;;;;12.09;84.73;103052.56;4852158;29;20443;-83
2023/05/18 09:27:11;;;;;;;6.57;1.80;;;;;;;12.25;82.89;103053.97;4850762;29;20029;-82
2023/05/18 09:29:54;;;;;;;8.48;2.20;;;;;;;12.31;80.77;103050.63;4875150;29;20072;-83
2023/05/18 09:32:23;;;;;;;5.95;1.50;;;;;;;12.45;81.01;103057.22;4842598;29;20060;-83
2023/05/18 09:34:52;;;;;;;5.53;1.60;;;;;;;12.52;79.60;103053.03;4862047;29;20041;-85
2023/05/18 09:37:20;;;;;;;4.57;1.80;;;;;;;12.59;79.43;103052.34;4870861;29;20044;-84
2023/05/18 09:40:06;;;;;;;3.78;1.73;;;;;;;12.76;79.51;103044.91;4841371;29;20060;-86
2023/05/18 09:42:40;;;;;;;6.82;2.13;;;;;;;12.98;79.22;103046.44;4853085;29;20060;-85
2023/05/18 09:45:22;;;;;;;5.25;2.13;;;;;;;13.00;77.72;103056.19;4873369;29;20073;-84
2023/05/18 09:47:50;;;;;;;4.15;1.67;;;;;;;13.10;78.32;103051.16;4853370;29;20054;-83
2023/05/18 09:50:23;;;;;;;11.63;1.98;;;;;;;13.20;77.01;103045.28;4878891;29;20053;-82
2023/05/18 09:52:51;;;;;;;6.63;2.22;;;;;;;13.25;78.24;103039.25;4869228;29;20049;-81
2023/05/18 09:55:19;;;;;;;8.13;2.78;;;;;;;13.47;78.26;103041.63;4841114;29;20060;-83
2023/05/18 09:57:49;;;;;;;8.25;1.90;;;;;;;13.65;77.26;103048.28;4861137;29;20057;-82
2023/05/18 10:00:19;;;;;;;4.80;1.40;;;;;;;13.74;75.08;103044.06;4877530;29;20064;-84
2023/05/18 10:02:51;;;;;;;8.63;2.50;;;;;;;13.83;75.33;103049.59;4861835;29;20041;-83
2023/05/18 10:05:27;;;;;;;6.07;1.83;;;;;;;13.85;74.75;103045.22;4870764;29;20064;-82
2023/05/18 10:07:55;;;;;;;7.00;2.17;;;;;;;13.87;73.90;103053.22;4876865;29;20061;-84
2023/05/18 10:10:26;;;;;;;4.82;1.63;;;;;;;13.92;73.74;103052.47;4844900;29;20060;-83
2023/05/18 10:12:54;;;;;;;;;;;;;;;14.01;72.62;103044.75;4881745;29;20057;-85
2023/05/18 10:15:22;;;;;;;4.70;1.80;;;;;;;14.14;74.06;103039.72;4904724;29;19943;-85
2023/05/18 10:17:54;;;;;;;6.07;1.80;;;;;;;14.19;74.45;103035.44;4856073;29;20053;-84
2023/05/18 10:20:25;;;;;;;7.93;1.88;;;;;;;14.23;74.27;103035.56;4874303;29;20499;-80
2023/05/18 10:22:55;;;;;;;8.10;2.10;;;;;;;14.28;73.92;103033.00;4860793;29;20053;-81
2023/05/18 10:25:25;;;;;;;7.00;2.27;;;;;;;14.26;74.02;103037.38;4869454;29;20069;-82
2023/05/18 10:27:59;;;;;;;8.23;1.80;;;;;;;14.22;72.91;103030.22;4839172;29;20289;-82
2023/05/18 10:30:27;;;;;;;6.95;1.80;;;;;;;14.18;73.22;103029.25;4869273;29;20064;-83
2023/05/18 10:32:56;;;;;;;7.40;1.60;;;;;;;14.17;73.67;103032.72;4851840;29;20064;-83
2023/05/18 10:35:27;;;;;;;6.88;2.35;;;;;;;14.18;73.98;103031.88;4869077;29;20064;-83
2023/05/18 10:37:58;;;;;;;4.97;1.83;;;;;;;14.20;74.04;103029.28;4870376;29;20056;-83
2023/05/18 10:40:27;;;;;;;;;;;;;;;14.23;72.93;103024.94;4886983;29;20038;-82
2023/05/18 10:42:57;;;;;;;5.47;1.52;;;;;;;14.31;74.66;103027.78;4849366;29;19928;-83
2023/05/18 10:45:25;;;;;;;4.15;1.65;;;;;;;14.38;75.17;103029.66;4868518;29;20053;-82
2023/05/18 10:47:54;;;;;;;6.45;1.70;;;;;;;14.46;75.31;103029.88;4862668;29;20064;-82
2023/05/18 10:50:22;;;;;;;6.10;2.13;;;;;;;14.40;72.27;103025.31;4888232;29;20053;-82
2023/05/18 10:52:50;;;;;;;5.35;1.70;;;;;;;14.41;74.55;103024.44;4901350;29;20060;-82
2023/05/18 10:55:18;;;;;;;6.97;2.30;;;;;;;14.54;74.54;103030.03;4878539;29;20079;-82
2023/05/18 10:57:51;;;;;;;6.55;2.25;;;;;;;14.42;72.88;103028.91;4817356;29;20049;-82
2023/05/18 11:00:19;;;;;;;5.57;1.50;;;;;;;14.43;74.92;103037.75;4906802;29;20067;-82
2023/05/18 11:02:49;;;;;;;6.13;1.58;;;;;;;14.43;73.55;103033.31;4877086;29;20522;-81
2023/05/18 11:05:23;;;;;;;7.53;1.40;;;;;;;14.46;74.59;103027.22;4865492;29;20061;-82
2023/05/18 11:08:03;;;;;;;5.53;1.95;;;;;;;14.33;74.89;103025.13;4859211;29;20664;-81
2023/05/18 11:10:47;;;;;;;7.13;2.10;;;;;;;14.27;75.80;103028.53;4875217;29;20064;-82
2023/05/18 11:13:14;;;;;;;8.05;1.80;;;;;;;14.28;76.98;103029.44;4861369;29;20064;-81
2023/05/18 11:15:55;;;;;;;5.63;1.60;;;;;;;14.39;77.49;103030.59;4849823;29;20068;-81
2023/05/18 11:18:45;;;;;;;5.25;1.80;;;;;;;14.45;78.94;103027.19;4863136;29;20052;-80
2023/05/18 11:21:20;;;;;;;4.75;1.67;;;;;;;14.43;77.83;103019.19;4851324;29;20056;-80
2023/05/18 11:24:20;;;;;;;6.15;2.40;;;;;;;14.56;77.60;103028.31;4871858;29;20044;-79
2023/05/18 11:26:49;;;;;;;6.43;2.10;;;;;;;14.61;78.33;103026.66;4890803;29;20036;-80
2023/05/18 11:29:17;;;;;;;4.45;1.90;;;;;;;14.58;77.73;103026.63;4866592;29;20068;-79
2023/05/18 11:31:47;;;;;;;2.78;1.17;;;;;;;14.42;78.45;103030.63;4874205;29;20511;-79
2023/05/18 11:34:48;;;;;;;3.95;1.60;;;;;;;14.55;79.33;103023.84;4874435;29;20052;-79
2023/05/18 11:37:37;;;;;;;5.38;1.88;;;;;;;14.77;80.13;103019.94;4864743;29;20056;-80
2023/05/18 11:40:12;;;;;;;3.00;1.77;;;;;;;14.93;80.07;103023.78;4850091;29;20057;-80